createdAt,value
2018-05-17T00:01:29.602Z,10.00
2018-05-17T00:03:57.063Z,10.00
2018-05-17T00:06:24.517Z,10.00
2018-05-17T00:08:52.004Z,10.00
2018-05-17T00:11:19.472Z,10.00
2018-05-17T00:13:46.928Z,10.00
2018-05-17T00:16:14.483Z,10.00
2018-05-17T00:18:42.021Z,10.00
2018-05-17T00:21:09.492Z,10.00
2018-05-17T00:23:36.952Z,10.10
2018-05-17T00:26:04.416Z,10.10
2018-05-17T00:28:31.879Z,10.10
2018-05-17T00:30:59.336Z,10.10
2018-05-17T00:33:26.804Z,10.10
2018-05-17T00:35:55.031Z,10.10
2018-05-17T00:38:22.489Z,10.10
2018-05-17T00:40:49.940Z,10.10
2018-05-17T00:43:17.440Z,10.20
2018-05-17T00:45:45.702Z,10.20
2018-05-17T00:48:13.156Z,10.20
2018-05-17T00:50:40.620Z,10.20
2018-05-17T00:53:19.902Z,10.20
2018-05-17T00:55:47.348Z,10.30
2018-05-17T00:58:14.804Z,10.30
2018-05-17T01:00:42.275Z,10.20
2018-05-17T01:03:09.739Z,10.20
2018-05-17T01:05:37.236Z,10.30
2018-05-17T01:08:05.504Z,10.30
2018-05-17T01:10:32.965Z,10.30
2018-05-17T01:13:00.428Z,10.30
2018-05-17T01:15:27.900Z,10.30
2018-05-17T01:17:56.116Z,10.30
2018-05-17T01:20:23.585Z,10.30
2018-05-17T01:22:51.056Z,10.30
2018-05-17T01:25:18.521Z,10.40
2018-05-17T01:27:45.988Z,10.30
2018-05-17T01:30:14.088Z,10.30
2018-05-17T01:32:42.321Z,10.30
2018-05-17T01:35:09.808Z,10.30
2018-05-17T01:37:50.039Z,10.20
2018-05-17T01:40:17.508Z,10.20
2018-05-17T01:42:44.965Z,10.20
2018-05-17T01:45:12.425Z,10.20
2018-05-17T01:47:39.884Z,10.20
2018-05-17T01:50:08.109Z,10.20
2018-05-17T01:52:35.580Z,10.20
2018-05-17T01:55:03.048Z,10.20
2018-05-17T01:57:30.508Z,10.10
2018-05-17T01:59:57.976Z,10.00
2018-05-17T02:02:25.756Z,10.00
2018-05-17T02:04:53.210Z,10.00
2018-05-17T02:07:21.449Z,10.10
2018-05-17T02:09:48.915Z,10.10
2018-05-17T02:12:16.398Z,10.10
2018-05-17T02:14:44.639Z,10.00
2018-05-17T02:17:12.108Z,10.00
2018-05-17T02:19:39.614Z,10.00
2018-05-17T02:22:07.076Z,10.00
2018-05-17T02:24:34.521Z,10.00
2018-05-17T02:27:02.040Z,10.00
2018-05-17T02:29:29.505Z,10.00
2018-05-17T02:31:56.956Z,9.90
2018-05-17T02:34:24.411Z,9.90
2018-05-17T02:36:51.861Z,9.90
2018-05-17T02:39:19.320Z,9.90
2018-05-17T02:41:46.776Z,9.90
2018-05-17T02:44:14.233Z,9.90
2018-05-17T02:46:41.690Z,9.90
2018-05-17T02:49:09.277Z,9.80
2018-05-17T02:51:36.612Z,9.70
2018-05-17T02:54:04.879Z,9.70
2018-05-17T02:56:32.442Z,9.70
2018-05-17T02:58:59.947Z,9.70
2018-05-17T03:01:27.360Z,9.70
2018-05-17T03:03:54.815Z,9.60
2018-05-17T03:06:22.268Z,9.60
2018-05-17T03:08:49.724Z,9.60
2018-05-17T03:11:17.188Z,9.50
2018-05-17T03:13:44.632Z,9.50
2018-05-17T03:16:12.126Z,9.50
2018-05-17T03:18:40.361Z,9.40
2018-05-17T03:21:07.805Z,9.40
2018-05-17T03:23:35.268Z,9.50
2018-05-17T03:26:02.721Z,9.40
2018-05-17T03:28:30.196Z,9.40
2018-05-17T03:30:57.749Z,9.40
2018-05-17T03:33:25.206Z,9.40
2018-05-17T03:35:53.481Z,9.40
2018-05-17T03:38:20.940Z,9.40
2018-05-17T03:40:48.396Z,9.40
2018-05-17T03:43:15.853Z,9.40
2018-05-17T03:45:43.312Z,9.40
2018-05-17T03:48:10.765Z,9.40
2018-05-17T03:50:38.224Z,9.30
2018-05-17T03:53:05.778Z,9.30
2018-05-17T03:55:33.228Z,9.20
2018-05-17T03:58:00.700Z,9.20
2018-05-17T04:00:34.197Z,9.10
2018-05-17T04:03:28.471Z,9.00
2018-05-17T04:06:07.825Z,9.00
2018-05-17T04:08:35.466Z,9.00
2018-05-17T04:11:04.387Z,8.90
2018-05-17T04:13:31.840Z,8.90
2018-05-17T04:16:00.074Z,8.90
2018-05-17T04:18:27.536Z,8.90
2018-05-17T04:20:54.988Z,8.90
2018-05-17T04:23:22.448Z,8.90
2018-05-17T04:25:49.934Z,9.00
2018-05-17T04:28:17.382Z,8.90
2018-05-17T04:30:44.945Z,8.90
2018-05-17T04:33:12.410Z,8.90
2018-05-17T04:35:39.961Z,8.90
2018-05-17T04:38:07.427Z,9.00
2018-05-17T04:40:35.648Z,9.00
2018-05-17T04:43:03.108Z,9.00
2018-05-17T04:45:30.618Z,9.00
2018-05-17T04:47:58.833Z,9.00
2018-05-17T04:50:26.304Z,9.00
2018-05-17T04:52:53.781Z,9.00
2018-05-17T04:55:21.228Z,9.10
2018-05-17T04:57:48.695Z,9.10
2018-05-17T05:00:16.147Z,9.20
2018-05-17T05:02:43.641Z,9.30
2018-05-17T05:05:11.073Z,9.40
2018-05-17T05:07:38.528Z,9.40
2018-05-17T05:10:05.984Z,9.40
2018-05-17T05:12:33.439Z,9.50
2018-05-17T05:15:00.897Z,9.60
2018-05-17T05:17:28.359Z,9.70
2018-05-17T05:19:55.817Z,9.80
2018-05-17T05:22:23.281Z,9.80
2018-05-17T05:24:50.820Z,10.00
2018-05-17T05:27:18.284Z,10.00
2018-05-17T05:29:45.749Z,10.00
2018-05-17T05:32:13.309Z,10.20
2018-05-17T05:34:40.781Z,10.20
2018-05-17T05:37:09.006Z,10.30
2018-05-17T05:39:36.484Z,10.30
2018-05-17T05:42:04.724Z,10.60
2018-05-17T05:44:32.182Z,10.60
2018-05-17T05:46:59.644Z,10.80
2018-05-17T05:49:27.185Z,11.00
2018-05-17T05:51:54.584Z,11.30
2018-05-17T05:54:22.052Z,11.50
2018-05-17T05:56:49.497Z,12.10
2018-05-17T05:59:16.964Z,12.30
2018-05-17T06:01:44.516Z,12.10
2018-05-17T06:04:11.976Z,12.30
2018-05-17T06:06:39.444Z,12.40
2018-05-17T06:09:06.900Z,12.50
2018-05-17T06:11:34.356Z,12.60
2018-05-17T06:14:01.836Z,12.70
2018-05-17T06:16:30.061Z,12.90
2018-05-17T06:18:57.511Z,12.90
2018-05-17T06:21:24.994Z,13.10
2018-05-17T06:23:52.506Z,13.10
2018-05-17T06:26:19.917Z,13.50
2018-05-17T06:28:47.465Z,13.90
2018-05-17T06:31:14.925Z,14.40
2018-05-17T06:33:42.385Z,14.50
2018-05-17T06:36:09.836Z,14.60
2018-05-17T06:38:37.334Z,14.80
2018-05-17T06:41:04.757Z,14.80
2018-05-17T06:43:32.213Z,14.80
2018-05-17T06:45:59.676Z,15.00
2018-05-17T06:48:27.995Z,17.40
2018-05-17T06:50:55.446Z,17.30
2018-05-17T06:53:22.910Z,18.10
2018-05-17T06:55:50.363Z,17.80
2018-05-17T06:58:17.833Z,17.60
2018-05-17T07:00:45.307Z,17.40
2018-05-17T07:03:12.764Z,17.80
2018-05-17T07:05:40.325Z,18.20
2018-05-17T07:08:07.796Z,18.40
2018-05-17T07:10:35.332Z,18.70
2018-05-17T07:13:04.230Z,18.50
2018-05-17T07:15:31.698Z,18.50
2018-05-17T07:17:59.304Z,17.80
2018-05-17T07:20:27.429Z,16.40
2018-05-17T07:22:54.888Z,16.40
2018-05-17T07:25:22.353Z,15.90
2018-05-17T07:27:49.813Z,15.60
2018-05-17T07:30:17.264Z,15.20
2018-05-17T07:32:44.737Z,14.80
2018-05-17T07:35:12.991Z,14.00
2018-05-17T07:37:40.445Z,14.00
2018-05-17T07:40:07.904Z,13.90
2018-05-17T07:42:35.357Z,13.70
2018-05-17T07:45:02.834Z,13.90
2018-05-17T07:47:30.284Z,14.20
2018-05-17T07:49:57.741Z,14.30
2018-05-17T07:52:25.213Z,14.60
2018-05-17T07:54:53.444Z,15.10
2018-05-17T07:57:20.910Z,15.10
2018-05-17T07:59:48.383Z,15.20
2018-05-17T08:02:15.828Z,14.90
2018-05-17T08:04:43.305Z,15.00
2018-05-17T08:07:10.752Z,15.20
2018-05-17T08:09:38.203Z,15.40
2018-05-17T08:12:06.440Z,15.30
2018-05-17T08:14:33.892Z,15.30
2018-05-17T08:17:01.400Z,15.50
2018-05-17T08:19:28.852Z,15.50
2018-05-17T08:21:56.320Z,15.40
2018-05-17T08:24:24.571Z,15.70
2018-05-17T08:26:52.025Z,15.70
2018-05-17T08:29:19.488Z,15.50
2018-05-17T08:31:46.964Z,15.90
2018-05-17T08:34:14.416Z,15.80
2018-05-17T08:36:41.919Z,16.00
2018-05-17T08:39:10.101Z,16.00
2018-05-17T08:41:37.554Z,16.00
2018-05-17T08:44:05.029Z,16.10
2018-05-17T08:46:32.476Z,15.80
2018-05-17T08:48:59.941Z,15.80
2018-05-17T08:51:27.404Z,15.80
2018-05-17T08:53:54.864Z,16.10
2018-05-17T08:56:22.339Z,16.00
2018-05-17T08:58:49.784Z,15.90
2018-05-17T09:01:17.245Z,16.10
2018-05-17T09:03:44.744Z,16.10
2018-05-17T09:06:12.250Z,16.40
2018-05-17T09:08:40.421Z,16.70
2018-05-17T09:11:07.897Z,16.70
2018-05-17T09:13:35.517Z,16.60
2018-05-17T09:16:02.919Z,16.40
2018-05-17T09:18:30.372Z,16.40
2018-05-17T09:20:57.832Z,16.60
2018-05-17T09:23:25.302Z,16.70
2018-05-17T09:25:53.524Z,16.80
2018-05-17T09:28:20.985Z,16.70
2018-05-17T09:30:48.455Z,16.90
2018-05-17T09:33:15.920Z,16.70
2018-05-17T09:35:43.375Z,16.70
2018-05-17T09:38:10.837Z,16.80
2018-05-17T09:40:38.285Z,16.80
2018-05-17T09:43:05.757Z,16.90
2018-05-17T09:45:33.212Z,17.00
2018-05-17T09:48:00.669Z,17.20
2018-05-17T09:50:28.179Z,17.50
2018-05-17T09:52:55.680Z,17.30
2018-05-17T09:55:23.144Z,17.20
2018-05-17T09:57:50.601Z,17.30
2018-05-17T10:00:21.927Z,17.40
2018-05-17T10:02:49.392Z,17.20
2018-05-17T10:05:16.856Z,17.30
2018-05-17T10:07:45.077Z,17.50
2018-05-17T10:10:12.579Z,17.50
2018-05-17T10:12:40.037Z,17.90
2018-05-17T10:15:07.503Z,18.00
2018-05-17T10:17:35.053Z,18.00
2018-05-17T10:20:02.505Z,18.00
2018-05-17T10:22:29.976Z,18.00
2018-05-17T10:24:57.440Z,18.30
2018-05-17T10:27:24.910Z,18.30
2018-05-17T10:29:53.143Z,17.90
2018-05-17T10:32:20.596Z,17.90
2018-05-17T10:34:48.051Z,17.90
2018-05-17T10:37:15.564Z,17.90
2018-05-17T10:39:43.024Z,18.10
2018-05-17T10:42:10.555Z,17.90
2018-05-17T10:44:37.936Z,18.10
2018-05-17T10:47:06.156Z,18.40
2018-05-17T10:49:33.619Z,18.40
2018-05-17T10:52:01.085Z,18.30
2018-05-17T10:54:28.645Z,18.30
2018-05-17T10:56:56.005Z,18.00
2018-05-17T10:59:23.473Z,17.90
2018-05-17T11:01:51.695Z,17.90
2018-05-17T11:04:19.144Z,18.00
2018-05-17T11:06:46.615Z,18.00
2018-05-17T11:09:14.094Z,17.70
2018-05-17T11:11:41.568Z,17.80
2018-05-17T11:14:09.016Z,17.90
2018-05-17T11:16:36.633Z,17.80
2018-05-17T11:19:04.104Z,17.40
2018-05-17T11:21:31.590Z,17.30
2018-05-17T11:23:59.061Z,17.20
2018-05-17T11:26:26.516Z,17.30
2018-05-17T11:28:53.974Z,17.50
2018-05-17T11:31:21.447Z,17.70
2018-05-17T11:33:49.730Z,18.10
2018-05-17T11:36:17.242Z,18.10
2018-05-17T11:38:44.695Z,17.90
2018-05-17T11:41:12.164Z,17.90
2018-05-17T11:43:39.636Z,18.20
2018-05-17T11:46:07.893Z,18.00
2018-05-17T11:48:35.359Z,17.90
2018-05-17T11:51:02.812Z,17.60
2018-05-17T11:53:30.272Z,17.80
2018-05-17T11:55:58.601Z,18.10
2018-05-17T11:58:26.070Z,18.10
2018-05-17T12:00:53.521Z,17.70
2018-05-17T12:03:20.999Z,17.70
2018-05-17T12:05:48.452Z,17.60
2018-05-17T12:08:16.060Z,17.60
2018-05-17T12:10:44.294Z,18.10
2018-05-17T12:13:12.003Z,18.10
2018-05-17T12:15:39.225Z,18.10
2018-05-17T12:18:06.676Z,18.20
2018-05-17T12:20:34.139Z,18.30
2018-05-17T12:23:01.603Z,18.70
2018-05-17T12:25:29.072Z,18.70
2018-05-17T12:27:57.322Z,18.50
2018-05-17T12:30:24.789Z,18.50
2018-05-17T12:32:52.243Z,18.20
2018-05-17T12:35:19.697Z,18.30
2018-05-17T12:37:47.158Z,18.50
2018-05-17T12:40:14.629Z,18.30
2018-05-17T12:42:42.843Z,18.00
2018-05-17T12:45:10.308Z,18.00
2018-05-17T12:47:37.764Z,18.00
2018-05-17T12:50:05.228Z,18.30
2018-05-17T12:52:32.688Z,18.50
2018-05-17T12:55:00.156Z,18.20
2018-05-17T12:57:27.721Z,18.40
2018-05-17T12:59:55.178Z,18.20
2018-05-17T13:02:22.693Z,18.40
2018-05-17T13:04:50.107Z,18.90
2018-05-17T13:07:18.329Z,18.60
2018-05-17T13:09:45.784Z,18.60
2018-05-17T13:12:13.255Z,18.50
2018-05-17T13:14:40.716Z,18.50
2018-05-17T13:17:08.178Z,18.20
2018-05-17T13:19:35.644Z,18.00
2018-05-17T13:22:03.113Z,18.40
2018-05-17T13:24:31.345Z,18.30
2018-05-17T13:26:58.814Z,18.20
2018-05-17T13:29:26.277Z,18.00
2018-05-17T13:31:53.850Z,17.90
2018-05-17T13:34:21.300Z,18.00
2018-05-17T13:36:48.865Z,18.10
2018-05-17T13:39:16.317Z,17.90
2018-05-17T13:41:43.776Z,18.10
2018-05-17T13:44:11.248Z,18.30
2018-05-17T13:46:38.734Z,18.60
2018-05-17T13:49:06.964Z,18.20
2018-05-17T13:51:34.392Z,18.20
2018-05-17T13:54:01.843Z,17.90
2018-05-17T13:56:29.304Z,17.60
2018-05-17T13:58:56.768Z,17.20
2018-05-17T14:01:24.248Z,17.60
2018-05-17T14:03:51.720Z,18.10
2018-05-17T14:06:19.170Z,18.20
2018-05-17T14:08:46.725Z,17.70
2018-05-17T14:11:14.192Z,17.80
2018-05-17T14:13:41.666Z,18.20
2018-05-17T14:16:09.909Z,18.00
2018-05-17T14:18:37.360Z,17.90
2018-05-17T14:21:04.836Z,17.90
2018-05-17T14:23:32.288Z,17.70
2018-05-17T14:25:59.741Z,17.40
2018-05-17T14:28:27.203Z,17.60
2018-05-17T14:30:54.667Z,17.90
2018-05-17T14:33:22.108Z,18.10
2018-05-17T14:35:49.572Z,17.70
2018-05-17T14:38:17.029Z,18.10
2018-05-17T14:40:44.477Z,18.00
2018-05-17T14:43:12.037Z,18.30
2018-05-17T14:45:39.493Z,18.30
2018-05-17T14:48:06.980Z,18.20
2018-05-17T14:50:35.192Z,18.30
2018-05-17T14:53:02.661Z,18.30
2018-05-17T14:55:30.139Z,18.10
2018-05-17T14:57:57.600Z,17.90
2018-05-17T15:00:25.056Z,18.00
2018-05-17T15:02:52.540Z,17.70
2018-05-17T15:05:20.764Z,17.70
2018-05-17T15:07:48.219Z,17.70
2018-05-17T15:10:15.720Z,17.80
2018-05-17T15:12:43.936Z,17.50
2018-05-17T15:15:11.392Z,17.60
2018-05-17T15:17:38.865Z,17.10
2018-05-17T15:20:06.333Z,17.20
2018-05-17T15:22:33.902Z,17.20
2018-05-17T15:25:01.356Z,17.30
2018-05-17T15:27:28.960Z,17.30
2018-05-17T15:29:56.412Z,17.50
2018-05-17T15:32:23.932Z,17.70
2018-05-17T15:34:52.170Z,17.60
2018-05-17T15:37:19.629Z,17.60
2018-05-17T15:39:47.081Z,17.20
2018-05-17T15:42:14.561Z,17.40
2018-05-17T15:44:42.021Z,17.40
2018-05-17T15:47:09.468Z,17.70
2018-05-17T15:49:37.056Z,18.10
2018-05-17T15:52:04.524Z,17.90
2018-05-17T15:54:32.754Z,17.90
2018-05-17T15:57:00.204Z,17.90
2018-05-17T15:59:27.660Z,17.80
2018-05-17T16:01:55.128Z,17.50
2018-05-17T16:04:22.581Z,17.30
2018-05-17T16:06:50.040Z,17.30
2018-05-17T16:09:17.512Z,17.30
2018-05-17T16:11:44.975Z,16.80
2018-05-17T16:14:12.452Z,16.60
2018-05-17T16:16:40.673Z,17.00
2018-05-17T16:19:08.141Z,17.00
2018-05-17T16:21:35.681Z,16.80
2018-05-17T16:24:03.144Z,16.80
2018-05-17T16:26:30.596Z,16.80
2018-05-17T16:28:58.069Z,16.70
2018-05-17T16:31:25.529Z,16.60
2018-05-17T16:33:52.989Z,16.50
2018-05-17T16:36:20.465Z,16.50
2018-05-17T16:38:48.016Z,16.50
2018-05-17T16:41:15.508Z,16.60
2018-05-17T16:43:43.856Z,16.70
2018-05-17T16:46:11.318Z,16.70
2018-05-17T16:48:38.792Z,16.30
2018-05-17T16:51:07.044Z,15.80
2018-05-17T16:53:34.500Z,15.80
2018-05-17T16:56:01.962Z,15.80
2018-05-17T16:58:29.431Z,15.80
2018-05-17T17:00:56.889Z,15.90
2018-05-17T17:03:24.437Z,15.80
2018-05-17T17:05:51.892Z,16.00
2018-05-17T17:08:19.380Z,15.90
2018-05-17T17:10:47.624Z,15.60
2018-05-17T17:13:15.112Z,15.60
2018-05-17T17:15:43.346Z,15.40
2018-05-17T17:18:10.802Z,15.40
2018-05-17T17:20:38.279Z,15.40
2018-05-17T17:23:06.536Z,15.20
2018-05-17T17:25:33.993Z,15.10
2018-05-17T17:28:01.452Z,15.00
2018-05-17T17:30:28.931Z,15.10
2018-05-17T17:32:57.185Z,15.20
2018-05-17T17:35:24.747Z,15.20
2018-05-17T17:37:52.216Z,15.10
2018-05-17T17:40:19.695Z,15.20
2018-05-17T17:42:47.225Z,15.10
2018-05-17T17:45:14.682Z,14.90
2018-05-17T17:47:42.151Z,14.90
2018-05-17T17:50:10.393Z,14.80
2018-05-17T17:52:37.844Z,14.80
2018-05-17T17:55:05.329Z,14.70
2018-05-17T17:57:32.793Z,14.80
2018-05-17T18:00:01.031Z,14.30
2018-05-17T18:02:28.513Z,14.30
2018-05-17T18:04:55.977Z,14.30
2018-05-17T18:07:23.441Z,14.20
2018-05-17T18:09:50.900Z,13.90
2018-05-17T18:12:19.116Z,13.70
2018-05-17T18:14:46.574Z,13.70
2018-05-17T18:17:15.044Z,13.60
2018-05-17T18:19:42.509Z,13.50
2018-05-17T18:22:09.972Z,13.50
2018-05-17T18:24:37.452Z,13.30
2018-05-17T18:27:04.901Z,13.30
2018-05-17T18:29:32.480Z,13.40
2018-05-17T18:32:00.039Z,13.30
2018-05-17T18:34:27.509Z,13.20
2018-05-17T18:36:55.235Z,13.10
2018-05-17T18:39:22.646Z,13.10
2018-05-17T18:41:50.080Z,13.00
2018-05-17T18:44:17.548Z,12.80
2018-05-17T18:46:45.780Z,12.70
2018-05-17T18:49:13.233Z,12.70
2018-05-17T18:51:40.704Z,12.70
2018-05-17T18:54:08.157Z,12.60
2018-05-17T18:56:35.628Z,12.50
2018-05-17T18:59:03.086Z,12.40
2018-05-17T19:01:30.586Z,12.30
2018-05-17T19:03:58.919Z,12.30
2018-05-17T19:06:26.429Z,12.30
2018-05-17T19:08:53.879Z,12.30
2018-05-17T19:11:21.357Z,12.20
2018-05-17T19:13:48.831Z,12.20
2018-05-17T19:16:16.319Z,12.10
2018-05-17T19:18:43.769Z,12.00
2018-05-17T19:21:11.225Z,11.80
2018-05-17T19:23:38.700Z,11.70
2018-05-17T19:26:06.924Z,11.60
2018-05-17T19:28:34.384Z,11.60
2018-05-17T19:31:01.852Z,11.50
2018-05-17T19:33:29.334Z,11.50
2018-05-17T19:35:56.792Z,11.30
2018-05-17T19:38:24.265Z,11.20
2018-05-17T19:40:52.479Z,11.20
2018-05-17T19:43:19.951Z,11.20
2018-05-17T19:45:47.425Z,11.10
2018-05-17T19:48:14.913Z,11.00
2018-05-17T19:50:42.376Z,10.90
2018-05-17T19:53:09.833Z,10.90
2018-05-17T19:55:37.337Z,10.80
2018-05-17T19:58:04.792Z,10.80
2018-05-17T20:00:32.249Z,10.80
2018-05-17T20:02:59.746Z,10.70
2018-05-17T20:05:27.735Z,10.60
2018-05-17T20:07:55.202Z,10.60
2018-05-17T20:10:22.661Z,10.60
2018-05-17T20:12:50.111Z,10.50
2018-05-17T20:15:17.560Z,10.50
2018-05-17T20:17:45.032Z,10.50
2018-05-17T20:20:12.509Z,10.40
2018-05-17T20:22:39.960Z,10.40
2018-05-17T20:25:07.423Z,10.40
2018-05-17T20:27:34.893Z,10.40
2018-05-17T20:30:02.360Z,10.40
2018-05-17T20:32:29.823Z,10.40
2018-05-17T20:34:58.090Z,10.20
2018-05-17T20:37:25.569Z,10.20
2018-05-17T20:39:53.798Z,10.20
2018-05-17T20:42:21.383Z,10.20
2018-05-17T20:44:48.940Z,10.10
2018-05-17T20:47:16.405Z,10.10
2018-05-17T20:49:43.877Z,10.10
2018-05-17T20:52:12.104Z,10.00
2018-05-17T20:54:39.577Z,10.00
2018-05-17T20:57:07.037Z,10.00
2018-05-17T20:59:34.592Z,9.90
2018-05-17T21:02:02.045Z,9.90
2018-05-17T21:04:29.504Z,9.80
2018-05-17T21:06:57.071Z,9.80
2018-05-17T21:09:24.630Z,9.80
2018-05-17T21:11:53.604Z,9.80
2018-05-17T21:14:21.065Z,9.80
2018-05-17T21:16:48.543Z,9.80
2018-05-17T21:19:16.836Z,9.80
2018-05-17T21:21:45.062Z,9.70
2018-05-17T21:24:12.508Z,9.70
2018-05-17T21:26:39.976Z,9.60
2018-05-17T21:29:07.436Z,9.60
2018-05-17T21:31:34.914Z,9.60
2018-05-17T21:34:02.447Z,9.50
2018-05-17T21:36:29.857Z,9.50
2018-05-17T21:38:58.092Z,9.50
2018-05-17T21:41:25.560Z,9.50
2018-05-17T21:43:53.049Z,9.50
2018-05-17T21:46:21.288Z,9.40
2018-05-17T21:48:48.755Z,9.40
2018-05-17T21:51:16.245Z,9.40
2018-05-17T21:53:44.465Z,9.40
2018-05-17T21:56:11.927Z,9.30
2018-05-17T21:58:39.387Z,9.40
2018-05-17T22:01:06.960Z,9.30
2018-05-17T22:03:34.436Z,9.30
2018-05-17T22:06:02.668Z,9.20
2018-05-17T22:08:30.281Z,9.20
2018-05-17T22:10:58.518Z,9.20
2018-05-17T22:13:25.986Z,9.20
2018-05-17T22:15:53.444Z,9.20
2018-05-17T22:18:20.909Z,9.10
2018-05-17T22:20:49.138Z,9.00
2018-05-17T22:23:16.605Z,9.10
2018-05-17T22:25:44.077Z,9.00
2018-05-17T22:28:11.537Z,9.00
2018-05-17T22:30:40.509Z,8.90
2018-05-17T22:33:07.995Z,8.90
2018-05-17T22:35:35.457Z,8.90
2018-05-17T22:38:02.900Z,8.90
2018-05-17T22:40:30.360Z,8.90
2018-05-17T22:42:57.812Z,8.90
2018-05-17T22:45:25.269Z,8.90
2018-05-17T22:47:52.723Z,8.80
2018-05-17T22:50:20.180Z,8.80
2018-05-17T22:52:49.132Z,8.70
2018-05-17T22:55:16.597Z,8.70
2018-05-17T22:57:55.909Z,8.80
2018-05-17T23:00:23.376Z,8.70
2018-05-17T23:02:50.840Z,8.70
2018-05-17T23:05:18.305Z,8.70
2018-05-17T23:07:45.769Z,8.60
2018-05-17T23:10:13.222Z,8.60
2018-05-17T23:12:40.701Z,8.70
2018-05-17T23:15:08.156Z,8.60
2018-05-17T23:17:35.613Z,8.60
2018-05-17T23:20:03.132Z,8.60
2018-05-17T23:22:36.473Z,8.60
2018-05-17T23:25:03.920Z,8.60
2018-05-17T23:27:31.384Z,8.50
2018-05-17T23:29:58.859Z,8.60
2018-05-17T23:32:27.070Z,8.50
2018-05-17T23:34:54.548Z,8.50
2018-05-17T23:37:22.008Z,8.60
2018-05-17T23:39:49.468Z,8.50
2018-05-17T23:42:16.916Z,8.50
2018-05-17T23:44:44.386Z,8.50
2018-05-17T23:47:11.845Z,8.50
2018-05-17T23:49:39.308Z,8.40
2018-05-17T23:52:06.764Z,8.50
2018-05-17T23:54:34.320Z,8.40
2018-05-17T23:57:01.776Z,8.40
2018-05-17T23:59:30.011Z,8.40
